Time;durP1;ratioP1;P1;durP2;ratioP2;P2;SDS_P1;SDS_P2;PMS_P1;PMS_P2;Temp;Humidity;BMP_temperature;BMP_pressure;BME280_temperature;BME280_humidity;BME280_pressure;Samples;Min_cycle;Max_cycle;Signal;HPM_P1;HPM_P2
2022/03/31 00:00:18;;;;;;;23.23;16.27;;;;;;;5.47;92.75;98437.03;4984337;28;20273;-61
2022/03/31 00:02:44;;;;;;;22.20;16.90;;;;;;;5.49;92.43;98438.63;4993611;28;20594;-62
2022/03/31 00:05:10;;;;;;;22.70;17.77;;;;;;;5.54;92.11;98438.31;4993074;28;20330;-62
2022/03/31 00:07:47;;;;;;;19.50;15.73;;;;;;;5.58;91.72;98438.97;4993255;28;20252;-62
2022/03/31 00:10:14;;;;;;;21.77;16.37;;;;;;;5.58;92.18;98432.13;4983025;28;20233;-61
2022/03/31 00:12:39;;;;;;;20.67;17.40;;;;;;;5.52;92.34;98432.50;4993478;28;20190;-62
2022/03/31 00:15:05;;;;;;;20.27;15.77;;;;;;;5.49;92.29;98436.06;4994506;28;20247;-62
2022/03/31 00:17:30;;;;;;;20.90;16.10;;;;;;;5.49;91.78;98427.59;4994402;28;20180;-62
2022/03/31 00:19:55;;;;;;;21.70;17.13;;;;;;;5.43;92.70;98433.88;4994310;28;20179;-62
2022/03/31 00:22:21;;;;;;;19.70;16.53;;;;;;;5.46;92.52;98426.03;4983218;28;20231;-61
2022/03/31 00:24:46;;;;;;;20.40;16.33;;;;;;;5.47;92.87;98426.84;4992602;28;20171;-62
2022/03/31 00:27:11;;;;;;;18.27;15.00;;;;;;;5.44;93.17;98420.19;4994478;28;20239;-62
2022/03/31 00:29:37;;;;;;;22.47;16.30;;;;;;;5.52;92.99;98424.03;4994464;28;20195;-61
2022/03/31 00:32:03;;;;;;;20.00;15.47;;;;;;;5.47;93.03;98422.56;4982494;28;20706;-61
2022/03/31 00:34:28;;;;;;;19.57;16.03;;;;;;;5.50;93.19;98419.84;4992743;28;20195;-61
2022/03/31 00:36:54;;;;;;;20.70;15.83;;;;;;;5.56;93.34;98428.03;4992202;28;20262;-61
2022/03/31 00:39:34;;;;;;;20.80;17.30;;;;;;;5.50;94.03;98424.13;4993949;28;20238;-62
2022/03/31 00:42:02;;;;;;;19.43;16.43;;;;;;;5.51;94.05;98428.31;4980692;28;20772;-61
2022/03/31 00:44:28;;;;;;;19.83;16.37;;;;;;;5.64;93.89;98424.13;4992317;28;20631;-61
2022/03/31 00:46:55;;;;;;;20.60;16.60;;;;;;;5.52;94.10;98427.41;4992754;28;20176;-63
2022/03/31 00:49:21;;;;;;;23.87;16.83;;;;;;;5.48;94.04;98418.28;4992579;28;20213;-62
2022/03/31 00:51:48;;;;;;;21.63;16.20;;;;;;;5.38;94.40;98420.56;4971705;28;20293;-61
2022/03/31 00:54:15;;;;;;;19.97;16.13;;;;;;;5.38;95.49;98409.56;4980595;28;20164;-61
2022/03/31 00:56:41;;;;;;;20.17;16.33;;;;;;;5.38;95.64;98405.28;4974876;28;20555;-62
2022/03/31 00:59:09;;;;;;;19.20;16.33;;;;;;;5.34;95.49;98401.28;4973191;28;20757;-63
2022/03/31 01:01:39;;;;;;;19.43;15.20;;;;;;;5.30;95.85;98395.53;4965395;28;20340;-62
2022/03/31 01:04:06;;;;;;;19.47;15.83;;;;;;;5.26;96.06;98386.44;4990192;28;20536;-61
2022/03/31 01:06:31;;;;;;;20.17;16.33;;;;;;;5.26;96.34;98393.25;4992218;28;20191;-62
2022/03/31 01:08:57;;;;;;;18.73;15.60;;;;;;;5.35;96.11;98387.63;4993340;28;20566;-62
2022/03/31 01:11:23;;;;;;;19.23;15.17;;;;;;;5.41;95.84;98381.31;4974416;28;20226;-61
2022/03/31 01:13:48;;;;;;;20.20;16.27;;;;;;;5.31;95.67;98375.97;4986298;28;20697;-62
2022/03/31 01:16:14;;;;;;;19.83;15.17;;;;;;;5.24;96.27;98375.50;4993444;28;20168;-62
2022/03/31 01:18:40;;;;;;;19.93;15.83;;;;;;;5.23;96.04;98367.97;4993433;28;20202;-62
2022/03/31 01:21:05;;;;;;;20.70;15.97;;;;;;;5.15;96.15;98366.69;4982970;28;20745;-62
2022/03/31 01:23:31;;;;;;;19.43;15.73;;;;;;;5.16;96.54;98365.78;4971942;28;20194;-61
2022/03/31 01:25:56;;;;;;;21.60;16.17;;;;;;;5.19;96.04;98361.44;4973530;28;20180;-61
2022/03/31 01:28:22;;;;;;;19.83;15.70;;;;;;;5.05;96.25;98359.69;4973894;28;20726;-61
2022/03/31 01:30:48;;;;;;;21.53;16.23;;;;;;;4.96;97.44;98351.69;4969498;28;20276;-61
2022/03/31 01:33:14;;;;;;;19.87;14.53;;;;;;;4.83;97.99;98353.31;4980989;28;20187;-61
2022/03/31 01:35:40;;;;;;;20.93;16.00;;;;;;;4.83;98.54;98343.13;4993040;28;20176;-61
2022/03/31 01:38:06;;;;;;;25.13;16.20;;;;;;;4.85;98.84;98351.50;4990752;28;20592;-62
2022/03/31 01:40:31;;;;;;;19.33;15.27;;;;;;;4.77;99.26;98359.59;4986817;28;20256;-63
2022/03/31 01:42:57;;;;;;;20.77;15.87;;;;;;;4.92;99.22;98357.06;5004152;28;20199;-62
2022/03/31 01:45:22;;;;;;;18.17;14.60;;;;;;;4.92;98.04;98351.94;4992912;28;20179;-62
2022/03/31 01:47:47;;;;;;;18.87;15.40;;;;;;;4.91;98.48;98346.06;4991151;28;20578;-61
2022/03/31 01:50:13;;;;;;;20.63;14.43;;;;;;;4.75;98.15;98348.69;4982501;28;20221;-60
2022/03/31 01:52:40;;;;;;;23.77;16.60;;;;;;;4.71;98.90;98349.75;4971834;28;20627;-62
2022/03/31 01:55:07;;;;;;;22.27;16.40;;;;;;;4.72;98.71;98346.31;4987810;28;20183;-60
2022/03/31 01:57:32;;;;;;;20.43;15.30;;;;;;;4.67;98.50;98346.56;4991325;28;20704;-61
2022/03/31 02:00:02;;;;;;;19.83;14.37;;;;;;;4.58;98.99;98356.50;4992518;28;20190;-60
2022/03/31 02:02:27;;;;;;;21.50;15.30;;;;;;;4.62;98.46;98357.94;4964662;28;20237;-60
2022/03/31 02:04:52;;;;;;;19.17;14.97;;;;;;;4.66;98.64;98364.47;4990759;28;20191;-61
2022/03/31 02:07:18;;;;;;;21.50;15.93;;;;;;;4.66;98.46;98354.31;4992383;28;20194;-61
2022/03/31 02:09:43;;;;;;;21.03;16.37;;;;;;;4.69;98.29;98354.94;4992509;28;20685;-61
2022/03/31 02:12:09;;;;;;;20.37;14.70;;;;;;;4.62;97.52;98361.28;4981263;28;20776;-61
2022/03/31 02:14:37;;;;;;;18.87;14.17;;;;;;;4.60;97.75;98362.28;5004455;28;20227;-61
2022/03/31 02:17:05;;;;;;;20.67;15.30;;;;;;;4.55;97.56;98356.66;5011713;28;20317;-63
2022/03/31 02:19:31;;;;;;;18.83;14.40;;;;;;;4.51;98.10;98351.75;5010627;28;20549;-61
2022/03/31 02:21:56;;;;;;;18.77;15.17;;;;;;;4.60;97.80;98347.00;4995574;28;20230;-61
2022/03/31 02:24:22;;;;;;;21.03;14.67;;;;;;;4.58;97.49;98342.00;4992105;28;20261;-62
2022/03/31 02:26:48;;;;;;;21.70;15.53;;;;;;;4.50;97.84;98339.09;4992616;28;20196;-61
2022/03/31 02:29:14;;;;;;;18.87;14.77;;;;;;;4.49;97.91;98337.44;4990989;28;20654;-61
2022/03/31 02:31:39;;;;;;;20.67;14.97;;;;;;;4.53;97.56;98333.84;4970919;28;20289;-62
2022/03/31 02:34:04;;;;;;;21.80;15.10;;;;;;;4.47;97.00;98339.28;4991097;28;20532;-61
2022/03/31 02:36:30;;;;;;;22.33;14.93;;;;;;;4.56;97.10;98340.47;4980796;28;20345;-62
2022/03/31 02:38:56;;;;;;;20.13;16.17;;;;;;;4.43;96.74;98333.53;4972020;28;20214;-61
2022/03/31 02:41:21;;;;;;;22.00;16.47;;;;;;;4.43;97.08;98331.00;4984018;28;20286;-62
2022/03/31 02:43:46;;;;;;;20.63;15.37;;;;;;;4.51;96.98;98326.28;5015845;28;20193;-63
2022/03/31 02:46:12;;;;;;;20.87;14.97;;;;;;;4.50;96.33;98321.25;5001643;28;20167;-62
2022/03/31 02:48:37;;;;;;;21.20;15.20;;;;;;;4.47;96.40;98326.53;5010022;28;20255;-62
2022/03/31 02:51:03;;;;;;;22.40;15.40;;;;;;;4.45;96.26;98320.72;5001057;28;20700;-62
2022/03/31 02:56:12;;;;;;;20.57;15.27;;;;;;;4.36;96.88;98311.88;4992191;28;20276;-61
2022/03/31 02:58:37;;;;;;;20.50;13.83;;;;;;;4.37;97.38;98300.78;4992108;28;20217;-61
2022/03/31 03:01:02;;;;;;;21.53;14.93;;;;;;;4.46;97.41;98304.53;4977426;28;20237;-61
2022/03/31 03:03:29;;;;;;;19.87;14.50;;;;;;;4.39;96.78;98299.00;4993759;28;20234;-61
2022/03/31 03:05:55;;;;;;;19.27;14.57;;;;;;;4.27;97.68;98294.59;4993996;28;20178;-59
2022/03/31 03:08:20;;;;;;;21.63;15.30;;;;;;;4.38;98.26;98293.97;4995948;28;20198;-62
2022/03/31 03:10:46;;;;;;;20.70;15.70;;;;;;;4.35;97.70;98293.25;4981605;28;20226;-62
2022/03/31 03:13:13;;;;;;;22.47;16.27;;;;;;;4.42;97.85;98288.63;4983698;28;20200;-63
2022/03/31 03:15:38;;;;;;;22.30;15.20;;;;;;;4.28;97.52;98278.41;4987687;28;20222;-61
2022/03/31 03:18:03;;;;;;;23.57;15.43;;;;;;;4.20;97.22;98271.22;5005839;28;20246;-61
2022/03/31 03:20:29;;;;;;;20.27;14.33;;;;;;;4.10;97.71;98277.75;4985546;28;20277;-59
2022/03/31 03:22:55;;;;;;;22.83;15.40;;;;;;;4.05;97.89;98275.47;4987216;28;20183;-61
2022/03/31 03:25:22;;;;;;;21.10;16.03;;;;;;;4.08;98.36;98264.28;4985618;28;20182;-61
2022/03/31 03:27:49;;;;;;;22.53;15.10;;;;;;;4.00;98.25;98264.72;4994514;28;20190;-60
2022/03/31 03:30:18;;;;;;;21.27;15.17;;;;;;;3.99;98.32;98258.00;4958333;28;20217;-60
2022/03/31 03:32:45;;;;;;;22.80;15.97;;;;;;;3.92;98.53;98257.53;4993507;28;20291;-61
2022/03/31 03:35:11;;;;;;;22.97;15.97;;;;;;;3.96;99.02;98255.66;4989475;28;20247;-61
2022/03/31 03:37:39;;;;;;;21.33;15.03;;;;;;;3.96;98.91;98255.66;4972309;28;20199;-63
2022/03/31 03:40:06;;;;;;;20.70;15.27;;;;;;;3.96;98.73;98261.53;4973750;28;20182;-61
2022/03/31 03:42:33;;;;;;;19.83;14.83;;;;;;;3.87;98.52;98250.16;4998824;28;20211;-61
2022/03/31 03:44:59;;;;;;;18.33;14.13;;;;;;;3.88;98.30;98250.97;4984884;28;20533;-60
2022/03/31 03:47:25;;;;;;;22.17;16.00;;;;;;;3.89;98.71;98252.63;4995332;28;20176;-61
2022/03/31 03:49:51;;;;;;;20.83;15.93;;;;;;;3.85;98.76;98258.78;4995602;28;20230;-63
2022/03/31 03:52:17;;;;;;;24.90;16.80;;;;;;;3.96;98.40;98270.91;4977294;28;20702;-64
2022/03/31 03:54:42;;;;;;;25.23;17.03;;;;;;;3.83;98.46;98255.50;4994185;28;20190;-61
2022/03/31 03:57:08;;;;;;;23.10;16.00;;;;;;;3.82;98.93;98254.69;4995386;28;20185;-63
2022/03/31 03:59:33;;;;;;;24.27;17.23;;;;;;;3.83;98.90;98256.34;4993874;28;20195;-61
2022/03/31 04:01:59;;;;;;;22.77;17.23;;;;;;;3.80;99.03;98259.03;4986831;28;20624;-61
2022/03/31 04:04:26;;;;;;;24.43;16.50;;;;;;;3.88;99.53;98256.06;4993936;28;20190;-61
2022/03/31 04:06:51;;;;;;;25.60;16.77;;;;;;;3.86;99.70;98257.91;4993647;28;20188;-61
2022/03/31 04:09:17;;;;;;;24.13;17.23;;;;;;;3.79;100.00;98256.59;4994974;28;20198;-61
2022/03/31 04:11:42;;;;;;;25.80;17.03;;;;;;;3.77;100.00;98254.16;4996025;28;20236;-61
2022/03/31 04:14:07;;;;;;;25.13;17.77;;;;;;;3.73;100.00;98252.66;4997669;28;20241;-61
2022/03/31 04:16:33;;;;;;;26.37;17.40;;;;;;;3.67;100.00;98251.28;4993458;28;20274;-61
2022/03/31 04:18:58;;;;;;;25.00;17.70;;;;;;;3.63;100.00;98247.25;4994863;28;20527;-61
2022/03/31 04:21:24;;;;;;;26.03;18.43;;;;;;;3.63;100.00;98247.25;4995077;28;20447;-62
2022/03/31 04:23:49;;;;;;;27.30;18.03;;;;;;;3.63;100.00;98249.00;4984481;28;20261;-62
2022/03/31 04:26:14;;;;;;;26.13;19.07;;;;;;;3.66;100.00;98241.19;4975181;28;20172;-62
2022/03/31 04:28:40;;;;;;;26.67;18.93;;;;;;;3.57;100.00;98242.53;4974994;28;20193;-61
2022/03/31 04:31:05;;;;;;;24.17;17.83;;;;;;;3.49;100.00;98237.06;4982630;28;20761;-62
2022/03/31 04:33:30;;;;;;;27.87;17.97;;;;;;;3.48;100.00;98238.75;4991451;28;20184;-61
2022/03/31 04:35:56;;;;;;;24.63;17.43;;;;;;;3.44;100.00;98232.22;4993131;28;20297;-60
2022/03/31 04:38:21;;;;;;;24.83;18.23;;;;;;;3.41;100.00;98239.19;4973576;28;20189;-59
2022/03/31 04:40:46;;;;;;;24.03;17.47;;;;;;;3.38;100.00;98241.00;4964725;28;20225;-60
2022/03/31 04:43:12;;;;;;;25.13;17.83;;;;;;;3.41;100.00;98241.75;4973507;28;20204;-60
2022/03/31 04:45:37;;;;;;;25.77;17.60;;;;;;;3.39;100.00;98244.38;4973177;28;20206;-61
2022/03/31 04:48:03;;;;;;;24.60;18.07;;;;;;;3.44;100.00;98250.00;4975009;28;20228;-60
2022/03/31 04:50:28;;;;;;;26.17;17.93;;;;;;;3.38;100.00;98246.06;4983966;28;20266;-60
2022/03/31 04:52:53;;;;;;;27.47;18.50;;;;;;;3.47;100.00;98256.66;4992649;28;20653;-64
2022/03/31 04:55:19;;;;;;;26.20;16.90;;;;;;;3.38;100.00;98258.78;4993926;28;20179;-61
2022/03/31 04:57:44;;;;;;;27.13;18.70;;;;;;;3.40;100.00;98251.09;4992518;28;20176;-61
2022/03/31 05:00:10;;;;;;;25.40;16.80;;;;;;;3.38;100.00;98251.16;4984193;28;20177;-61
2022/03/31 05:02:36;;;;;;;23.83;17.13;;;;;;;3.38;100.00;98251.16;5007637;28;20212;-61
2022/03/31 05:05:02;;;;;;;24.97;16.73;;;;;;;3.28;100.00;98244.13;4992025;28;20206;-61
2022/03/31 05:07:27;;;;;;;24.00;16.50;;;;;;;3.27;100.00;98245.03;4992363;28;20203;-60
2022/03/31 05:09:53;;;;;;;26.73;16.67;;;;;;;3.20;100.00;98245.38;4993403;28;20539;-61
2022/03/31 05:12:19;;;;;;;23.50;16.87;;;;;;;3.20;100.00;98244.53;4998640;28;20223;-60
2022/03/31 05:14:44;;;;;;;25.07;17.03;;;;;;;3.17;100.00;98242.97;4991450;28;20699;-60
2022/03/31 05:17:10;;;;;;;23.07;16.57;;;;;;;3.20;100.00;98245.38;4992302;28;20180;-60
2022/03/31 05:19:35;;;;;;;22.90;15.73;;;;;;;3.17;100.00;98240.44;4993598;28;20169;-60
2022/03/31 05:22:01;;;;;;;23.87;17.03;;;;;;;3.19;100.00;98246.28;4997884;28;20236;-60
2022/03/31 05:24:26;;;;;;;28.53;18.13;;;;;;;3.22;100.00;98243.56;4973818;28;20306;-61
2022/03/31 05:26:54;;;;;;;24.27;17.40;;;;;;;3.22;100.00;98248.66;4972524;28;20184;-61
2022/03/31 05:29:21;;;;;;;22.90;16.97;;;;;;;3.25;100.00;98250.22;4977977;28;20211;-61
2022/03/31 05:31:46;;;;;;;24.30;16.30;;;;;;;3.28;100.00;98249.22;4966381;28;20294;-61
2022/03/31 05:34:12;;;;;;;25.63;16.97;;;;;;;3.28;100.00;98251.75;4981150;28;20206;-62
2022/03/31 05:36:37;;;;;;;24.73;17.30;;;;;;;3.36;100.00;98250.44;4991694;28;20262;-60
2022/03/31 05:39:03;;;;;;;26.50;18.20;;;;;;;3.46;100.00;98252.47;4991756;28;20235;-62
2022/03/31 05:41:29;;;;;;;29.13;18.10;;;;;;;3.47;100.00;98254.09;4973244;28;20224;-61
2022/03/31 05:43:55;;;;;;;27.10;18.00;;;;;;;3.51;100.00;98243.69;4992103;28;20185;-61
2022/03/31 05:46:21;;;;;;;23.73;16.80;;;;;;;3.54;100.00;98242.72;4987195;28;20183;-60
2022/03/31 05:48:47;;;;;;;22.63;16.27;;;;;;;3.57;100.00;98239.16;4971944;28;20191;-61
2022/03/31 05:51:12;;;;;;;24.73;16.97;;;;;;;3.68;100.00;98239.38;4981847;28;20345;-61
2022/03/31 05:53:38;;;;;;;23.80;16.57;;;;;;;3.75;100.00;98245.78;4976883;28;20610;-60
2022/03/31 05:56:03;;;;;;;23.27;16.90;;;;;;;3.85;100.00;98257.06;4973224;28;20175;-61
2022/03/31 05:58:29;;;;;;;24.17;16.27;;;;;;;3.84;100.00;98247.78;4973194;28;20225;-61
2022/03/31 06:00:54;;;;;;;23.27;17.03;;;;;;;3.87;99.92;98242.53;4965125;28;20299;-61
2022/03/31 06:03:22;;;;;;;24.73;16.30;;;;;;;4.01;99.92;98240.94;4981023;28;20213;-61
2022/03/31 06:05:48;;;;;;;22.77;16.73;;;;;;;3.97;99.16;98244.53;4971889;28;20170;-63
2022/03/31 06:08:14;;;;;;;22.63;16.97;;;;;;;4.00;98.95;98240.09;4971934;28;20210;-61
2022/03/31 06:10:39;;;;;;;23.33;15.90;;;;;;;4.03;98.93;98239.09;4980135;28;20321;-61
2022/03/31 06:13:05;;;;;;;23.13;16.40;;;;;;;4.03;98.63;98234.84;5008441;28;20180;-61
2022/03/31 06:15:30;;;;;;;23.43;16.73;;;;;;;4.17;98.54;98236.59;5006977;28;20193;-63
2022/03/31 06:17:56;;;;;;;26.40;17.60;;;;;;;4.26;97.36;98234.44;5009880;28;20574;-63
2022/03/31 06:20:21;;;;;;;26.10;17.20;;;;;;;4.27;96.67;98234.31;4998416;28;20242;-61
2022/03/31 06:22:46;;;;;;;22.73;16.77;;;;;;;4.27;96.06;98236.06;4999738;28;20231;-61
2022/03/31 06:25:14;;;;;;;23.77;16.30;;;;;;;4.41;95.72;98242.88;5007996;28;20212;-63
2022/03/31 06:27:40;;;;;;;21.70;16.53;;;;;;;4.56;94.57;98236.06;4995136;28;20181;-63
2022/03/31 06:30:06;;;;;;;20.90;16.53;;;;;;;4.55;93.87;98240.31;4997039;28;20220;-62
2022/03/31 06:32:31;;;;;;;22.97;16.90;;;;;;;4.66;93.54;98237.97;4991253;28;20233;-62
2022/03/31 06:34:57;;;;;;;24.33;16.30;;;;;;;4.64;92.34;98236.41;5006254;28;20621;-65
2022/03/31 06:37:22;;;;;;;24.67;17.20;;;;;;;4.66;92.89;98237.97;5009969;28;20186;-62
2022/03/31 06:39:48;;;;;;;23.67;16.37;;;;;;;4.60;92.93;98238.34;5004479;28;20289;-63
2022/03/31 06:42:14;;;;;;;24.00;16.80;;;;;;;4.71;93.02;98241.97;4983541;28;20246;-62
2022/03/31 06:44:39;;;;;;;23.20;16.47;;;;;;;4.73;92.04;98248.59;5008567;28;20185;-63
2022/03/31 06:47:05;;;;;;;24.40;16.83;;;;;;;4.67;92.20;98244.69;5008944;28;20186;-63
2022/03/31 06:49:31;;;;;;;23.70;17.27;;;;;;;4.67;91.22;98246.44;5005713;28;20211;-60
2022/03/31 06:51:57;;;;;;;22.00;16.50;;;;;;;4.65;90.72;98249.06;4994722;28;20816;-65
2022/03/31 06:54:23;;;;;;;23.90;16.97;;;;;;;4.72;90.99;98235.97;4991000;28;20168;-63
2022/03/31 06:56:49;;;;;;;20.07;15.90;;;;;;;4.56;91.49;98247.06;4988468;28;20237;-61
2022/03/31 06:59:14;;;;;;;21.50;15.20;;;;;;;4.49;91.31;98238.97;4983664;28;20550;-62
2022/03/31 07:01:39;;;;;;;23.07;17.03;;;;;;;4.62;91.31;98241.59;4961188;28;20224;-61
2022/03/31 07:04:06;;;;;;;20.97;15.97;;;;;;;4.99;91.69;98229.19;4999450;28;20178;-66
2022/03/31 07:06:33;;;;;;;22.87;17.50;;;;;;;5.09;88.71;98233.72;4993579;28;20719;-61
2022/03/31 07:08:58;;;;;;;24.83;17.37;;;;;;;4.92;87.75;98222.81;4979770;28;20302;-61
2022/03/31 07:11:24;;;;;;;23.27;16.50;;;;;;;4.95;87.66;98230.28;4988459;28;20325;-61
2022/03/31 07:13:49;;;;;;;21.07;16.23;;;;;;;4.93;87.33;98229.56;4977276;28;20632;-62
2022/03/31 07:16:16;;;;;;;25.70;17.80;;;;;;;4.96;88.02;98231.94;4971220;28;20270;-61
2022/03/31 07:18:42;;;;;;;23.63;16.63;;;;;;;4.90;87.05;98232.31;4978151;28;20172;-62
2022/03/31 07:21:08;;;;;;;20.57;16.37;;;;;;;4.92;86.92;98233.00;4963649;28;20296;-62
2022/03/31 07:23:33;;;;;;;20.13;16.00;;;;;;;4.85;86.89;98224.94;4989119;28;20344;-62
2022/03/31 07:25:58;;;;;;;23.07;17.97;;;;;;;4.96;87.02;98223.44;4986659;28;20625;-63
2022/03/31 07:28:24;;;;;;;25.77;16.70;;;;;;;5.05;86.92;98229.72;5009293;28;20182;-63
2022/03/31 07:30:50;;;;;;;22.70;17.57;;;;;;;5.15;85.88;98231.59;4965976;28;20246;-63
2022/03/31 07:33:19;;;;;;;22.07;16.20;;;;;;;5.07;85.35;98233.00;4980979;28;20634;-62
2022/03/31 07:35:44;;;;;;;20.00;15.83;;;;;;;5.04;85.39;98225.53;5010036;28;20175;-63
2022/03/31 07:38:10;;;;;;;21.37;16.57;;;;;;;5.09;85.03;98231.19;5007404;28;20237;-62
2022/03/31 07:40:38;;;;;;;19.50;14.80;;;;;;;5.04;84.83;98228.09;4997375;28;20293;-63
2022/03/31 07:43:04;;;;;;;21.77;16.57;;;;;;;5.06;85.49;98223.69;4997889;28;20186;-60
2022/03/31 07:45:31;;;;;;;19.57;15.17;;;;;;;5.23;84.73;98225.22;5005147;28;20551;-61
2022/03/31 07:47:56;;;;;;;19.90;15.80;;;;;;;5.32;84.54;98225.44;5012294;28;20234;-60
2022/03/31 07:50:22;;;;;;;22.07;15.67;;;;;;;5.19;83.32;98227.13;4999525;28;20232;-60
2022/03/31 07:52:48;;;;;;;20.00;14.80;;;;;;;5.15;84.04;98223.94;4990796;28;20181;-61
2022/03/31 07:55:16;;;;;;;19.03;15.43;;;;;;;5.22;83.73;98229.50;5009096;28;20190;-62
2022/03/31 07:57:41;;;;;;;20.50;14.90;;;;;;;5.29;83.46;98235.81;5012872;28;20194;-64
2022/03/31 08:00:09;;;;;;;18.90;15.90;;;;;;;5.53;82.79;98222.44;5002769;28;20171;-61
2022/03/31 08:02:35;;;;;;;20.90;15.67;;;;;;;5.40;82.15;98232.59;4991208;28;20325;-62
2022/03/31 08:05:00;;;;;;;22.43;16.17;;;;;;;5.41;81.72;98224.06;5012744;28;20257;-63
2022/03/31 08:10:48;;;;;;;19.37;14.73;;;;;;;5.61;81.39;98216.88;4977032;28;20238;-62
2022/03/31 08:13:24;;;;;;;20.10;15.63;;;;;;;5.49;81.46;98210.81;4997888;28;20260;-62
2022/03/31 08:15:53;;;;;;;20.17;16.00;;;;;;;5.63;81.68;98213.31;5013227;28;20178;-63
2022/03/31 08:18:19;;;;;;;20.23;15.70;;;;;;;5.68;81.22;98212.19;5010274;28;20313;-62
2022/03/31 08:20:45;;;;;;;20.77;15.67;;;;;;;5.47;81.62;98220.28;4992239;28;20730;-62
2022/03/31 08:23:10;;;;;;;19.20;16.37;;;;;;;5.28;82.45;98216.38;4981374;28;20183;-61
2022/03/31 08:25:36;;;;;;;20.37;15.50;;;;;;;5.31;82.49;98218.72;4994823;28;20265;-60
2022/03/31 08:28:01;;;;;;;22.40;16.47;;;;;;;5.32;82.70;98220.34;4979905;28;20203;-60
2022/03/31 08:30:28;;;;;;;21.70;15.70;;;;;;;5.30;82.73;98217.06;4964567;28;20375;-59
2022/03/31 08:32:53;;;;;;;20.60;15.67;;;;;;;5.44;82.02;98217.94;4961695;28;20184;-60
2022/03/31 08:35:20;;;;;;;21.37;16.17;;;;;;;5.48;82.16;98219.38;5013577;28;20182;-62
2022/03/31 08:37:46;;;;;;;19.97;16.47;;;;;;;5.79;80.48;98212.28;5012452;28;20642;-62
2022/03/31 08:40:13;;;;;;;21.20;15.50;;;;;;;6.05;79.57;98222.56;4991787;28;20185;-62
2022/03/31 08:42:40;;;;;;;19.27;13.97;;;;;;;5.88;78.10;98214.25;4997806;28;20179;-62
2022/03/31 08:45:09;;;;;;;20.60;15.33;;;;;;;6.10;78.64;98216.25;5011587;28;20238;-62
2022/03/31 08:47:37;;;;;;;20.07;15.40;;;;;;;6.53;76.36;98215.09;5012396;28;20293;-62
2022/03/31 08:50:02;;;;;;;18.87;15.00;;;;;;;6.76;74.79;98217.78;5010114;28;20614;-63
2022/03/31 08:52:28;;;;;;;18.83;15.33;;;;;;;6.34;75.22;98207.03;4982359;28;20197;-61
2022/03/31 08:54:53;;;;;;;20.53;16.20;;;;;;;6.23;77.41;98208.59;4993441;28;20187;-61
2022/03/31 08:57:20;;;;;;;21.03;17.20;;;;;;;6.30;77.00;98208.97;4993116;28;20226;-61
2022/03/31 08:59:45;;;;;;;20.57;16.47;;;;;;;6.28;77.37;98208.28;4993608;28;20224;-61
2022/03/31 09:02:25;;;;;;;21.03;16.10;;;;;;;6.29;76.73;98209.91;4982066;28;20722;-62
2022/03/31 09:05:05;;;;;;;18.20;14.80;;;;;;;6.27;77.14;98216.84;4986991;28;20183;-63
2022/03/31 09:07:30;;;;;;;19.33;15.33;;;;;;;6.25;76.13;98211.03;5008551;28;20240;-63
2022/03/31 09:09:55;;;;;;;20.33;15.77;;;;;;;6.10;76.97;98210.31;5012297;28;20521;-60
2022/03/31 09:12:24;;;;;;;20.37;15.43;;;;;;;6.12;77.97;98211.84;4979925;28;20260;-61
2022/03/31 09:14:50;;;;;;;18.57;15.53;;;;;;;6.12;77.00;98209.28;4992861;28;20816;-61
2022/03/31 09:17:16;;;;;;;20.47;16.97;;;;;;;6.12;77.63;98211.84;4992145;28;20267;-62
2022/03/31 09:19:45;;;;;;;20.90;16.13;;;;;;;5.87;77.96;98212.63;4985454;28;20184;-62
2022/03/31 09:22:10;;;;;;;24.33;17.50;;;;;;;5.78;79.51;98211.50;4958708;28;20227;-61
2022/03/31 09:24:36;;;;;;;22.67;17.30;;;;;;;6.01;78.51;98211.75;5000775;28;20538;-62
2022/03/31 09:27:04;;;;;;;21.43;17.50;;;;;;;6.08;77.53;98209.63;4993712;28;20176;-61
2022/03/31 09:29:31;;;;;;;20.20;15.87;;;;;;;6.33;77.66;98207.97;5012855;28;20209;-62
2022/03/31 09:32:10;;;;;;;22.57;14.67;;;;;;;6.41;76.88;98210.81;4981059;28;20281;-62
2022/03/31 09:34:44;;;;;;;21.17;15.47;;;;;;;6.55;75.63;98214.97;5011769;28;20191;-62
2022/03/31 09:37:11;;;;;;;19.93;17.37;;;;;;;6.89;73.45;98210.13;5002094;28;20180;-61
2022/03/31 09:39:37;;;;;;;21.80;16.37;;;;;;;6.62;73.70;98209.38;4991595;28;20637;-61
2022/03/31 09:42:10;;;;;;;22.60;18.03;;;;;;;6.49;74.65;98217.94;4984679;28;20231;-61
2022/03/31 09:44:36;;;;;;;23.00;16.83;;;;;;;6.69;74.55;98219.16;4991042;28;20186;-61
2022/03/31 09:47:01;;;;;;;20.30;16.73;;;;;;;6.76;74.39;98216.06;4991427;28;20542;-61
2022/03/31 09:49:28;;;;;;;21.40;16.50;;;;;;;6.73;73.12;98218.03;4992997;28;20207;-61
2022/03/31 09:51:54;;;;;;;22.07;16.67;;;;;;;6.68;73.22;98218.34;4984299;28;20666;-62
2022/03/31 09:54:29;;;;;;;19.90;16.50;;;;;;;6.49;75.24;98212.84;4972745;28;20176;-61
2022/03/31 09:56:56;;;;;;;25.53;17.93;;;;;;;6.41;75.41;98211.66;4973374;28;20172;-62
2022/03/31 09:59:28;;;;;;;23.57;18.10;;;;;;;6.53;75.04;98220.19;4973248;28;21041;-61
2022/03/31 10:01:53;;;;;;;25.70;18.77;;;;;;;6.45;75.28;98210.50;4988398;28;20243;-61
2022/03/31 10:04:20;;;;;;;24.20;16.67;;;;;;;6.52;75.77;98210.91;5009683;28;20246;-63
2022/03/31 10:06:45;;;;;;;20.73;17.37;;;;;;;6.59;75.50;98206.19;4991269;28;20185;-62
2022/03/31 10:09:13;;;;;;;22.83;18.50;;;;;;;6.73;74.51;98200.13;4990098;28;20294;-60
2022/03/31 10:11:41;;;;;;;24.03;17.60;;;;;;;7.00;73.97;98196.59;4987931;28;20375;-60
2022/03/31 10:14:31;;;;;;;21.13;16.47;;;;;;;7.24;71.67;98204.25;5000297;28;20188;-61
2022/03/31 10:16:59;;;;;;;22.77;17.20;;;;;;;6.72;73.45;98196.78;4990889;28;20202;-64
2022/03/31 10:19:38;;;;;;;26.30;18.00;;;;;;;6.72;73.73;98199.34;4973792;28;20268;-63
2022/03/31 10:22:08;;;;;;;21.67;17.87;;;;;;;6.95;72.81;98196.91;4983225;28;20223;-62
2022/03/31 10:24:44;;;;;;;20.93;17.23;;;;;;;7.15;72.21;98189.56;4992786;28;20311;-61
2022/03/31 10:27:14;;;;;;;24.83;17.97;;;;;;;7.06;72.53;98194.41;5010339;28;20639;-61
2022/03/31 10:29:45;;;;;;;21.43;17.10;;;;;;;7.20;71.92;98190.06;5010647;28;20212;-61
2022/03/31 10:32:18;;;;;;;23.80;17.93;;;;;;;7.02;72.46;98184.50;5000254;28;20223;-61
2022/03/31 10:34:48;;;;;;;20.83;17.50;;;;;;;7.19;71.87;98188.44;5002685;28;20186;-62
2022/03/31 10:37:14;;;;;;;24.27;18.23;;;;;;;7.18;71.57;98182.50;4990836;28;20589;-62
2022/03/31 10:39:50;;;;;;;21.60;17.93;;;;;;;7.13;72.35;98176.88;4990751;28;20174;-62
2022/03/31 10:42:16;;;;;;;23.03;18.60;;;;;;;7.42;71.79;98174.00;4982431;28;20240;-59
2022/03/31 10:44:41;;;;;;;24.90;19.67;;;;;;;7.53;70.53;98171.47;4996764;28;20173;-60
2022/03/31 10:47:09;;;;;;;27.33;18.30;;;;;;;7.02;72.01;98177.66;5011401;28;20191;-62
2022/03/31 10:49:36;;;;;;;22.07;18.30;;;;;;;7.15;73.10;98166.56;5007024;28;20550;-62
2022/03/31 10:52:17;;;;;;;21.07;17.07;;;;;;;7.15;71.26;98156.34;4981092;28;20569;-61
2022/03/31 10:54:43;;;;;;;24.73;19.73;;;;;;;7.22;71.07;98154.97;4989434;28;20863;-62
2022/03/31 10:57:12;;;;;;;22.93;19.77;;;;;;;7.79;69.94;98150.00;4992228;28;20273;-62
2022/03/31 10:59:39;;;;;;;21.90;17.83;;;;;;;8.29;67.25;98152.25;4990720;28;20730;-60
2022/03/31 11:02:14;;;;;;;22.77;17.67;;;;;;;8.12;66.05;98153.53;4954269;28;20777;-61
2022/03/31 11:04:48;;;;;;;23.83;18.40;;;;;;;8.27;66.74;98151.56;4986752;28;20203;-61
2022/03/31 11:07:25;;;;;;;27.87;18.53;;;;;;;8.22;66.10;98150.16;4971065;28;20218;-61
2022/03/31 11:10:12;;;;;;;23.70;19.07;;;;;;;8.26;65.99;98144.78;4977609;28;20207;-61
2022/03/31 11:12:39;;;;;;;23.63;18.27;;;;;;;8.31;66.98;98150.38;4979308;28;20233;-61
2022/03/31 11:15:07;;;;;;;23.63;17.03;;;;;;;8.31;66.19;98146.09;4992536;28;20183;-62
2022/03/31 11:17:34;;;;;;;24.43;18.60;;;;;;;8.14;65.98;98146.56;5007549;28;20545;-60
2022/03/31 11:20:03;;;;;;;22.53;18.07;;;;;;;7.77;67.42;98144.19;5006419;28;20233;-62
2022/03/31 11:22:30;;;;;;;22.40;18.53;;;;;;;7.82;68.48;98152.34;4998031;28;20385;-63
2022/03/31 11:25:08;;;;;;;22.47;17.67;;;;;;;8.14;67.83;98139.69;5012551;28;20201;-61
2022/03/31 11:27:39;;;;;;;23.23;18.10;;;;;;;7.83;67.30;98147.09;5010273;28;20633;-62